Terminal Aerodrome Forecast
Issued by NWS

Home | Current Version | Previous Version | Text Only | Print | Product List | Glossary On
Versions: 1 2 3 4 5 6 7 8 9 10 11 12 13 14 15 16 17 18 19 20 21 22
000
FTUS46 KOTX 220201 AAA
TAFCOE
TAF AMD
KCOE 220201Z 2202/2224 24009KT 5SM -SN BR BKN005 OVC018
     FM220400 23008KT P6SM VCSH BKN004 OVC008
     FM220800 23006KT P6SM OVC006
     FM221800 21006KT P6SM BKN012 OVC020
     FM222000 22006KT P6SM BKN025 BKN200=

USA.gov is the U.S. government's official web portal to all federal, state and local government web resources and services.